Time;durP1;ratioP1;P1;durP2;ratioP2;P2;SDS_P1;SDS_P2;PMS_P1;PMS_P2;Temp;Humidity;BMP_temperature;BMP_pressure;BME280_temperature;BME280_humidity;BME280_pressure;Samples;Min_cycle;Max_cycle;Signal;HPM_P1;HPM_P2
2023/05/31 00:00:14;;;;;;;;;;;;;;;;;;6129323;23;19927;-78
2023/05/31 00:02:43;;;;;;;;;;;;;;;;;;6103726;23;19932;-78
2023/05/31 00:05:10;;;;;;;;;;;;;;;;;;6103334;23;19928;-78
2023/05/31 00:07:41;;;;;;;;;;;;;;;;;;6104188;23;19921;-78
2023/05/31 00:10:08;;;;;;;;;;;;;;;;;;6129373;23;19921;-78
2023/05/31 00:12:35;;;;;;;;;;;;;;;;;;6152958;23;19921;-78
2023/05/31 00:15:02;;;;;;;;;;;;;;;;;;6128104;23;19921;-78
2023/05/31 00:17:34;;;;;;;;;;;;;;;;;;6129046;23;20353;-78
2023/05/31 00:20:04;;;;;;;;;;;;;;;;;;6157770;23;19928;-78
2023/05/31 00:22:36;;;;;;;;;;;;;;;;;;6104640;23;19921;-78
2023/05/31 00:25:07;;;;;;;;;;;;;;;;;;6128720;23;19921;-78
2023/05/31 00:27:36;;;;;;;;;;;;;;;;;;6138593;23;19928;-78
2023/05/31 00:30:03;;;;;;;;;;;;;;;;;;6103956;23;19920;-78
2023/05/31 00:32:32;;;;;;;;;;;;;;;;;;6104813;23;19931;-78
2023/05/31 00:34:59;;;;;;;;;;;;;;;;;;6103336;23;19928;-78
2023/05/31 00:37:26;;;;;;;;;;;;;;;;;;6104267;23;19921;-78
2023/05/31 00:39:53;;;;;;;;;;;;;;;;;;6128906;23;19924;-78
2023/05/31 00:42:22;;;;;;;;;;;;;;;;;;6129157;23;19927;-78
2023/05/31 00:44:49;;;;;;;;;;;;;;;;;;6103221;23;19921;-78
2023/05/31 00:47:16;;;;;;;;;;;;;;;;;;6103784;23;19920;-78
2023/05/31 00:49:45;;;;;;;;;;;;;;;;;;6128160;23;19921;-78
2023/05/31 00:52:14;;;;;;;;;;;;;;;;;;6163089;23;19975;-78
2023/05/31 00:54:41;;;;;;;;;;;;;;;;;;6128035;23;19920;-78
2023/05/31 00:57:08;;;;;;;;;;;;;;;;;;6104767;23;19921;-78
2023/05/31 00:59:41;;;;;;;;;;;;;;;;;;6103810;23;19921;-78
2023/05/31 01:02:08;;;;;;;;;;;;;;;;;;6127560;23;19921;-78
2023/05/31 01:04:36;;;;;;;;;;;;;;;;;;6128290;23;19921;-78
2023/05/31 01:07:03;;;;;;;;;;;;;;;;;;6129844;23;20349;-78
2023/05/31 01:09:30;;;;;;;;;;;;;;;;;;6104391;23;19921;-78
2023/05/31 01:12:00;;;;;;;;;;;;;;;;;;6128178;23;19927;-78
2023/05/31 01:14:31;;;;;;;;;;;;;;;;;;6103870;23;19921;-78
2023/05/31 01:17:06;;;;;;;;;;;;;;;;;;6104567;23;20341;-78
2023/05/31 01:19:38;;;;;;;;;;;;;;;;;;6103343;23;19936;-78
2023/05/31 01:22:14;;;;;;;;;;;;;;;;;;6102990;23;19927;-78
2023/05/31 01:24:45;;;;;;;;;;;;;;;;;;6138487;23;19925;-78
2023/05/31 01:27:16;;;;;;;;;;;;;;;;;;6103178;23;19932;-78
2023/05/31 01:29:43;;;;;;;;;;;;;;;;;;6102382;23;19929;-78
2023/05/31 01:32:13;;;;;;;;;;;;;;;;;;6102199;23;19936;-78
2023/05/31 01:34:40;;;;;;;;;;;;;;;;;;6103682;23;19920;-78
2023/05/31 01:37:07;;;;;;;;;;;;;;;;;;6128510;23;19928;-78
2023/05/31 01:39:34;;;;;;;;;;;;;;;;;;6102868;23;19928;-78
2023/05/31 01:42:04;;;;;;;;;;;;;;;;;;6103355;23;19921;-78
2023/05/31 01:44:35;;;;;;;;;;;;;;;;;;6138579;23;19921;-78
2023/05/31 01:47:07;;;;;;;;;;;;;;;;;;6138031;23;19928;-78
2023/05/31 01:49:36;;;;;;;;;;;;;;;;;;6102667;23;19921;-78
2023/05/31 01:52:07;;;;;;;;;;;;;;;;;;6103415;23;19920;-78
2023/05/31 01:54:34;;;;;;;;;;;;;;;;;;6103634;23;19925;-78
2023/05/31 01:57:02;;;;;;;;;;;;;;;;;;6103866;23;19928;-78
2023/05/31 01:59:31;;;;;;;;;;;;;;;;;;6102927;23;19921;-78
2023/05/31 02:02:01;;;;;;;;;;;;;;;;;;6104155;23;19932;-78
2023/05/31 02:04:36;;;;;;;;;;;;;;;;;;6103689;23;19920;-78
2023/05/31 02:07:09;;;;;;;;;;;;;;;;;;6104336;23;19920;-78
2023/05/31 02:09:39;;;;;;;;;;;;;;;;;;6101793;23;19924;-78
2023/05/31 02:12:06;;;;;;;;;;;;;;;;;;6104095;23;19920;-78
2023/05/31 02:14:33;;;;;;;;;;;;;;;;;;6102438;23;19947;-78
2023/05/31 02:17:04;;;;;;;;;;;;;;;;;;6104725;23;20269;-78
2023/05/31 02:19:36;;;;;;;;;;;;;;;;;;6101943;23;19928;-78
2023/05/31 02:22:06;;;;;;;;;;;;;;;;;;6138111;23;19936;-78
2023/05/31 02:24:35;;;;;;;;;;;;;;;;;;6103049;23;19927;-78
2023/05/31 02:27:05;;;;;;;;;;;;;;;;;;6104026;23;19921;-78
2023/05/31 02:29:32;;;;;;;;;;;;;;;;;;6103244;23;20337;-78
2023/05/31 02:32:01;;;;;;;;;;;;;;;;;;6136857;23;19920;-78
2023/05/31 02:34:33;;;;;;;;;;;;;;;;;;6128600;23;19920;-78
2023/05/31 02:37:02;;;;;;;;;;;;;;;;;;6137165;23;19921;-78
2023/05/31 02:39:32;;;;;;;;;;;;;;;;;;6103881;23;19924;-78
2023/05/31 02:42:02;;;;;;;;;;;;;;;;;;6126908;23;19921;-78
2023/05/31 02:44:32;;;;;;;;;;;;;;;;;;6103760;23;19921;-78
2023/05/31 02:47:03;;;;;;;;;;;;;;;;;;6104139;23;19924;-78
2023/05/31 02:49:34;;;;;;;;;;;;;;;;;;6102250;23;19924;-78
2023/05/31 02:52:05;;;;;;;;;;;;;;;;;;6102665;23;19929;-78
2023/05/31 02:54:50;;;;;;;;;;;;;;;;;;6163609;23;19920;-78
2023/05/31 02:57:22;;;;;;;;;;;;;;;;;;6103606;23;19928;-78
2023/05/31 02:59:55;;;;;;;;;;;;;;;;;;6128365;23;20337;-78
2023/05/31 03:02:25;;;;;;;;;;;;;;;;;;6102736;23;19924;-78
2023/05/31 03:05:12;;;;;;;;;;;;;;;;;;6127724;23;19921;-78
2023/05/31 03:07:42;;;;;;;;;;;;;;;;;;6103862;23;19929;-78
2023/05/31 03:10:12;;;;;;;;;;;;;;;;;;6103100;23;20368;-78
2023/05/31 03:12:39;;;;;;;;;;;;;;;;;;6101792;23;19928;-78
2023/05/31 03:15:08;;;;;;;;;;;;;;;;;;6103504;23;19921;-78
2023/05/31 03:17:37;;;;;;;;;;;;;;;;;;6128160;23;20253;-78
2023/05/31 03:20:08;;;;;;;;;;;;;;;;;;6132798;23;19921;-78
2023/05/31 03:22:37;;;;;;;;;;;;;;;;;;6128026;23;19921;-78
2023/05/31 03:25:07;;;;;;;;;;;;;;;;;;6105339;23;19921;-78
2023/05/31 03:27:36;;;;;;;;;;;;;;;;;;6105054;23;19928;-78
2023/05/31 03:30:04;;;;;;;;;;;;;;;;;;6105183;23;20314;-77
2023/05/31 03:32:36;;;;;;;;;;;;;;;;;;6104070;23;19920;-77
2023/05/31 03:35:03;;;;;;;;;;;;;;;;;;6129560;23;20368;-77
2023/05/31 03:37:30;;;;;;;;;;;;;;;;;;6104723;23;20257;-77
2023/05/31 03:40:11;;;;;;;;;;;;;;;;;;6128886;23;19932;-77
2023/05/31 03:42:41;;;;;;;;;;;;;;;;;;6104235;23;19920;-77
2023/05/31 03:45:11;;;;;;;;;;;;;;;;;;6103690;23;19920;-77
2023/05/31 03:47:38;;;;;;;;;;;;;;;;;;6105017;23;20347;-77
2023/05/31 03:50:05;;;;;;;;;;;;;;;;;;6104120;23;19925;-78
2023/05/31 03:52:32;;;;;;;;;;;;;;;;;;6129331;23;19924;-78
2023/05/31 03:55:00;;;;;;;;;;;;;;;;;;6103065;23;19920;-78
2023/05/31 03:57:32;;;;;;;;;;;;;;;;;;6139382;23;19921;-78
2023/05/31 04:00:02;;;;;;;;;;;;;;;;;;6103976;23;19921;-78
2023/05/31 04:02:30;;;;;;;;;;;;;;;;;;6155418;23;20342;-78
2023/05/31 04:04:57;;;;;;;;;;;;;;;;;;6103682;23;20232;-78
2023/05/31 04:07:25;;;;;;;;;;;;;;;;;;6129508;23;19920;-78
2023/05/31 04:09:58;;;;;;;;;;;;;;;;;;6132579;23;19921;-78
2023/05/31 04:12:25;;;;;;;;;;;;;;;;;;6104133;23;20257;-78
2023/05/31 04:14:54;;;;;;;;;;;;;;;;;;6103532;23;19931;-78
2023/05/31 04:17:24;;;;;;;;;;;;;;;;;;6139993;23;20348;-78
2023/05/31 04:19:54;;;;;;;;;;;;;;;;;;6103778;23;19928;-78
2023/05/31 04:22:23;;;;;;;;;;;;;;;;;;6129101;23;19921;-78
2023/05/31 04:24:53;;;;;;;;;;;;;;;;;;6103805;23;19921;-78
2023/05/31 04:27:38;;;;;;;;;;;;;;;;;;6105547;23;19921;-78
2023/05/31 04:30:09;;;;;;;;;;;;;;;;;;6155128;23;19981;-78
2023/05/31 04:32:36;;;;;;;;;;;;;;;;;;6127688;23;19928;-77
2023/05/31 04:35:05;;;;;;;;;;;;;;;;;;6104462;23;19925;-77
2023/05/31 04:37:39;;;;;;;;;;;;;;;;;;6105036;23;19920;-77
2023/05/31 04:40:10;;;;;;;;;;;;;;;;;;6104416;23;19927;-77
2023/05/31 04:42:40;;;;;;;;;;;;;;;;;;6127353;23;19932;-77
2023/05/31 04:45:19;;;;;;;;;;;;;;;;;;6104391;23;19920;-77
2023/05/31 04:47:53;;;;;;;;;;;;;;;;;;6104181;23;19920;-77
2023/05/31 04:50:21;;;;;;;;;;;;;;;;;;6104217;23;19928;-77
2023/05/31 04:52:51;;;;;;;;;;;;;;;;;;6102751;23;20261;-77
2023/05/31 04:55:18;;;;;;;;;;;;;;;;;;6128118;23;19921;-77
2023/05/31 04:57:47;;;;;;;;;;;;;;;;;;6103535;23;19921;-77
2023/05/31 05:00:17;;;;;;;;;;;;;;;;;;6104725;23;19927;-77
2023/05/31 05:03:13;;;;;;;;;;;;;;;;;;6128657;23;20257;-77
2023/05/31 05:05:46;;;;;;;;;;;;;;;;;;6105457;23;19928;-77
2023/05/31 05:08:13;;;;;;;;;;;;;;;;;;6103177;23;19946;-77
2023/05/31 05:10:42;;;;;;;;;;;;;;;;;;6115206;23;19911;-79
2023/05/31 05:13:09;;;;;;;;;;;;;;;;;;6154780;23;19920;-79
2023/05/31 05:15:41;;;;;;;;;;;;;;;;;;6143498;23;19921;-79
2023/05/31 05:18:15;;;;;;;;;;;;;;;;;;6151268;23;19921;-79
2023/05/31 05:20:45;;;;;;;;;;;;;;;;;;6130008;23;19931;-79
2023/05/31 05:23:16;;;;;;;;;;;;;;;;;;6104532;23;19924;-79
2023/05/31 05:25:43;;;;;;;;;;;;;;;;;;6102799;23;19921;-79
2023/05/31 05:28:11;;;;;;;;;;;;;;;;;;6128090;23;20376;-79
2023/05/31 05:30:40;;;;;;;;;;;;;;;;;;6129253;23;19921;-79
2023/05/31 05:33:12;;;;;;;;;;;;;;;;;;6161901;23;20265;-79
2023/05/31 05:35:46;;;;;;;;;;;;;;;;;;6128416;23;19921;-79
2023/05/31 05:38:13;;;;;;;;;;;;;;;;;;6103269;23;19921;-79
2023/05/31 05:40:40;;;;;;;;;;;;;;;;;;6128830;23;19921;-79
2023/05/31 05:43:10;;;;;;;;;;;;;;;;;;6128101;23;20337;-79
2023/05/31 05:45:51;;;;;;;;;;;;;;;;;;6103254;23;19921;-79
2023/05/31 05:48:21;;;;;;;;;;;;;;;;;;6104295;23;19921;-79
2023/05/31 05:50:49;;;;;;;;;;;;;;;;;;6104391;23;19927;-79
2023/05/31 05:53:19;;;;;;;;;;;;;;;;;;6104393;23;20285;-79
2023/05/31 05:55:48;;;;;;;;;;;;;;;;;;6128793;23;20257;-79
2023/05/31 05:58:18;;;;;;;;;;;;;;;;;;6104891;23;19921;-79
2023/05/31 06:01:05;;;;;;;;;;;;;;;;;;6127526;23;19932;-79
2023/05/31 06:03:37;;;;;;;;;;;;;;;;;;6105210;23;19925;-79
2023/05/31 06:06:09;;;;;;;;;;;;;;;;;;6105238;23;19920;-80
2023/05/31 06:08:37;;;;;;;;;;;;;;;;;;6112625;23;19929;-80
2023/05/31 06:11:04;;;;;;;;;;;;;;;;;;6149705;23;19927;-81
2023/05/31 06:13:31;;;;;;;;;;;;;;;;;;6147282;23;19935;-80
2023/05/31 06:16:01;;;;;;;;;;;;;;;;;;6121318;23;20454;-80
2023/05/31 06:18:28;;;;;;;;;;;;;;;;;;6170424;23;19921;-80
2023/05/31 06:20:57;;;;;;;;;;;;;;;;;;6125218;23;19949;-80
2023/05/31 06:23:34;;;;;;;;;;;;;;;;;;6149771;23;19927;-80
2023/05/31 06:26:03;;;;;;;;;;;;;;;;;;6121325;23;19929;-80
2023/05/31 06:28:30;;;;;;;;;;;;;;;;;;6169668;23;20296;-80
2023/05/31 06:31:00;;;;;;;;;;;;;;;;;;6119607;23;19931;-80
2023/05/31 06:33:30;;;;;;;;;;;;;;;;;;6156648;23;19920;-80
2023/05/31 06:35:57;;;;;;;;;;;;;;;;;;6122138;23;19927;-80
2023/05/31 06:38:25;;;;;;;;;;;;;;;;;;6123242;23;19921;-80
2023/05/31 06:40:53;;;;;;;;;;;;;;;;;;6158840;23;19920;-80
2023/05/31 06:43:20;;;;;;;;;;;;;;;;;;6148667;23;20144;-80
2023/05/31 06:46:15;;;;;;;;;;;;;;;;;;6104085;23;19920;-79
2023/05/31 06:49:03;;;;;;;;;;;;;;;;;;6146170;23;19924;-79
2023/05/31 06:51:48;;;;;;;;;;;;;;;;;;6128115;23;19921;-79
2023/05/31 06:54:32;;;;;;;;;;;;;;;;;;6164735;23;19921;-79
2023/05/31 06:57:05;;;;;;;;;;;;;;;;;;6151752;23;19921;-79
2023/05/31 06:59:32;;;;;;;;;;;;;;;;;;6125933;23;19928;-79
2023/05/31 07:02:01;;;;;;;;;;;;;;;;;;6152079;23;20253;-79
2023/05/31 07:04:31;;;;;;;;;;;;;;;;;;6127842;23;19928;-79
2023/05/31 07:06:58;;;;;;;;;;;;;;;;;;6129538;23;19920;-79
2023/05/31 07:09:25;;;;;;;;;;;;;;;;;;6101488;23;19943;-79
2023/05/31 07:11:58;;;;;;;;;;;;;;;;;;6103009;23;20349;-79
2023/05/31 07:14:29;;;;;;;;;;;;;;;;;;6137757;23;19931;-79
2023/05/31 07:16:56;;;;;;;;;;;;;;;;;;6125730;23;19925;-79
2023/05/31 07:19:23;;;;;;;;;;;;;;;;;;6124403;23;19927;-81
2023/05/31 07:21:52;;;;;;;;;;;;;;;;;;6119531;23;19921;-80
2023/05/31 07:24:22;;;;;;;;;;;;;;;;;;6173855;23;19940;-80
2023/05/31 07:26:49;;;;;;;;;;;;;;;;;;6149758;23;19927;-80
2023/05/31 07:29:17;;;;;;;;;;;;;;;;;;6149313;23;19920;-80
2023/05/31 07:31:44;;;;;;;;;;;;;;;;;;6124957;23;19931;-80
2023/05/31 07:34:16;;;;;;;;;;;;;;;;;;6184911;23;19924;-80
2023/05/31 07:36:45;;;;;;;;;;;;;;;;;;6175556;23;19927;-80
2023/05/31 07:39:12;;;;;;;;;;;;;;;;;;6174970;23;19920;-80
2023/05/31 07:41:40;;;;;;;;;;;;;;;;;;6124919;23;19920;-80
2023/05/31 07:44:07;;;;;;;;;;;;;;;;;;6124718;23;19929;-80
2023/05/31 07:46:37;;;;;;;;;;;;;;;;;;6148557;23;19935;-80
2023/05/31 07:49:08;;;;;;;;;;;;;;;;;;6125301;23;19920;-80
2023/05/31 07:51:37;;;;;;;;;;;;;;;;;;6138838;23;19952;-79
2023/05/31 07:54:04;;;;;;;;;;;;;;;;;;6103246;23;19925;-79
2023/05/31 07:56:31;;;;;;;;;;;;;;;;;;6128913;23;19928;-79
2023/05/31 07:58:58;;;;;;;;;;;;;;;;;;6130098;23;19921;-79
2023/05/31 08:01:25;;;;;;;;;;;;;;;;;;6154617;23;19920;-79
2023/05/31 08:03:54;;;;;;;;;;;;;;;;;;6154938;23;19928;-79
2023/05/31 08:06:24;;;;;;;;;;;;;;;;;;6165335;23;19920;-79
2023/05/31 08:08:53;;;;;;;;;;;;;;;;;;6104032;23;20341;-79
2023/05/31 08:11:21;;;;;;;;;;;;;;;;;;6103025;23;19928;-79
2023/05/31 08:13:48;;;;;;;;;;;;;;;;;;6128439;23;19925;-79
2023/05/31 08:16:18;;;;;;;;;;;;;;;;;;6104309;23;19924;-79
2023/05/31 08:18:45;;;;;;;;;;;;;;;;;;6154353;23;19924;-79
2023/05/31 08:21:15;;;;;;;;;;;;;;;;;;6152929;23;19925;-79
2023/05/31 08:23:45;;;;;;;;;;;;;;;;;;6127176;23;19936;-79
2023/05/31 08:26:14;;;;;;;;;;;;;;;;;;6129947;23;19924;-79
2023/05/31 08:28:41;;;;;;;;;;;;;;;;;;6103462;23;19927;-79
2023/05/31 08:31:08;;;;;;;;;;;;;;;;;;6128834;23;19920;-79
2023/05/31 08:33:36;;;;;;;;;;;;;;;;;;6104204;23;19924;-79
2023/05/31 08:36:05;;;;;;;;;;;;;;;;;;6154152;23;20253;-79
2023/05/31 08:38:36;;;;;;;;;;;;;;;;;;6155201;23;19920;-79
2023/05/31 08:41:03;;;;;;;;;;;;;;;;;;6128760;23;20245;-79
2023/05/31 08:43:30;;;;;;;;;;;;;;;;;;6104071;23;19928;-79
2023/05/31 08:46:00;;;;;;;;;;;;;;;;;;6127520;23;19932;-79
2023/05/31 08:48:32;;;;;;;;;;;;;;;;;;6103858;23;19921;-79
2023/05/31 08:51:05;;;;;;;;;;;;;;;;;;6162550;23;19921;-79
2023/05/31 08:53:36;;;;;;;;;;;;;;;;;;6102551;23;19924;-78
2023/05/31 08:56:04;;;;;;;;;;;;;;;;;;6102192;23;19931;-78
2023/05/31 08:58:36;;;;;;;;;;;;;;;;;;6124148;23;19921;-78
2023/05/31 09:01:03;;;;;;;;;;;;;;;;;;6126038;23;19931;-78
2023/05/31 09:03:31;;;;;;;;;;;;;;;;;;6127730;23;19920;-79
2023/05/31 09:05:58;;;;;;;;;;;;;;;;;;6128948;23;19932;-79
2023/05/31 09:08:33;;;;;;;;;;;;;;;;;;6137924;23;19931;-79
2023/05/31 09:11:09;;;;;;;;;;;;;;;;;;6129580;23;19931;-79
2023/05/31 09:13:41;;;;;;;;;;;;;;;;;;6140004;23;19920;-79
2023/05/31 09:16:13;;;;;;;;;;;;;;;;;;6164917;23;19921;-79
2023/05/31 09:18:40;;;;;;;;;;;;;;;;;;6128061;23;19952;-79
2023/05/31 09:21:10;;;;;;;;;;;;;;;;;;6139900;23;19911;-79
2023/05/31 09:23:40;;;;;;;;;;;;;;;;;;6123869;23;19920;-78
2023/05/31 09:26:10;;;;;;;;;;;;;;;;;;6153922;23;19920;-78
2023/05/31 09:28:37;;;;;;;;;;;;;;;;;;6111117;23;19927;-78
2023/05/31 09:31:07;;;;;;;;;;;;;;;;;;6105203;23;20353;-78
2023/05/31 09:33:41;;;;;;;;;;;;;;;;;;6131458;23;20410;-80
2023/05/31 09:36:12;;;;;;;;;;;;;;;;;;6160214;23;19925;-80
2023/05/31 09:38:39;;;;;;;;;;;;;;;;;;6149275;23;19928;-80
2023/05/31 09:41:18;;;;;;;;;;;;;;;;;;6148791;23;19924;-80
2023/05/31 09:43:45;;;;;;;;;;;;;;;;;;6179947;23;19931;-80
2023/05/31 09:46:13;;;;;;;;;;;;;;;;;;6146401;23;19921;-80
2023/05/31 09:48:40;;;;;;;;;;;;;;;;;;6147293;23;19920;-80
2023/05/31 09:51:09;;;;;;;;;;;;;;;;;;6147205;23;19925;-80
2023/05/31 09:53:37;;;;;;;;;;;;;;;;;;6173475;23;20257;-80
2023/05/31 09:56:07;;;;;;;;;;;;;;;;;;6123414;23;20359;-80
2023/05/31 09:58:38;;;;;;;;;;;;;;;;;;6146799;23;19942;-80
2023/05/31 10:01:05;;;;;;;;;;;;;;;;;;6173032;23;19920;-80
2023/05/31 10:03:32;;;;;;;;;;;;;;;;;;6183648;23;19931;-80
2023/05/31 10:06:02;;;;;;;;;;;;;;;;;;6174954;23;20286;-80
2023/05/31 10:08:31;;;;;;;;;;;;;;;;;;6158520;23;19924;-80
2023/05/31 10:11:01;;;;;;;;;;;;;;;;;;6183368;23;19921;-80
2023/05/31 10:13:28;;;;;;;;;;;;;;;;;;6173680;23;19921;-80
2023/05/31 10:16:01;;;;;;;;;;;;;;;;;;6172897;23;19920;-80
2023/05/31 10:18:29;;;;;;;;;;;;;;;;;;6146930;23;19920;-80
2023/05/31 10:20:58;;;;;;;;;;;;;;;;;;6171619;23;19921;-80
2023/05/31 10:23:28;;;;;;;;;;;;;;;;;;6183870;23;19920;-80
2023/05/31 10:25:57;;;;;;;;;;;;;;;;;;6162183;23;19927;-79
2023/05/31 10:28:28;;;;;;;;;;;;;;;;;;6127467;23;19931;-79
2023/05/31 10:30:55;;;;;;;;;;;;;;;;;;6132903;23;19928;-79
2023/05/31 10:33:30;;;;;;;;;;;;;;;;;;6180152;23;19925;-79
2023/05/31 10:36:00;;;;;;;;;;;;;;;;;;6156698;23;19925;-80
2023/05/31 10:38:28;;;;;;;;;;;;;;;;;;6181133;23;19935;-81
2023/05/31 10:41:00;;;;;;;;;;;;;;;;;;6121249;23;19931;-81
2023/05/31 10:43:29;;;;;;;;;;;;;;;;;;6121031;23;19924;-81
2023/05/31 10:45:57;;;;;;;;;;;;;;;;;;6120770;23;19921;-80
2023/05/31 10:48:27;;;;;;;;;;;;;;;;;;6146062;23;19920;-79
2023/05/31 10:50:57;;;;;;;;;;;;;;;;;;6109807;23;19921;-79
2023/05/31 10:53:28;;;;;;;;;;;;;;;;;;6122587;23;19921;-80
2023/05/31 10:55:56;;;;;;;;;;;;;;;;;;6134331;23;19927;-79
2023/05/31 10:58:27;;;;;;;;;;;;;;;;;;6172642;23;19920;-80
2023/05/31 11:00:54;;;;;;;;;;;;;;;;;;6147923;23;19920;-81
2023/05/31 11:03:24;;;;;;;;;;;;;;;;;;6174065;23;19920;-81
2023/05/31 11:06:00;;;;;;;;;;;;;;;;;;6147816;23;19927;-81
2023/05/31 11:08:27;;;;;;;;;;;;;;;;;;6147145;23;19931;-80
2023/05/31 11:11:13;;;;;;;;;;;;;;;;;;6132353;23;19927;-77
2023/05/31 11:14:00;;;;;;;;;;;;;;;;;;6129706;23;20265;-79
2023/05/31 11:16:37;;;;;;;;;;;;;;;;;;6132804;23;19920;-79
2023/05/31 11:19:52;;;;;;;;;;;;;;;;;;6132395;23;20249;-79
2023/05/31 11:22:27;;;;;;;;;;;;;;;;;;6106331;23;19928;-80
2023/05/31 11:24:58;;;;;;;;;;;;;;;;;;6104433;23;19928;-79
2023/05/31 11:27:34;;;;;;;;;;;;;;;;;;6129326;23;19927;-79
2023/05/31 11:30:09;;;;;;;;;;;;;;;;;;6116306;23;19935;-80
2023/05/31 11:33:26;;;;;;;;;;;;;;;;;;6123777;23;19935;-81
2023/05/31 11:36:02;;;;;;;;;;;;;;;;;;6061758;23;19921;-81
2023/05/31 11:38:30;;;;;;;;;;;;;;;;;;6147571;23;19920;-81
2023/05/31 11:41:07;;;;;;;;;;;;;;;;;;6150352;23;19927;-81
2023/05/31 11:44:17;;;;;;;;;;;;;;;;;;6124748;23;19921;-81
2023/05/31 11:46:47;;;;;;;;;;;;;;;;;;6112283;23;19928;-78
2023/05/31 11:49:16;;;;;;;;;;;;;;;;;;6066201;23;19921;-78
2023/05/31 11:51:46;;;;;;;;;;;;;;;;;;6048765;23;19921;-78
2023/05/31 11:54:17;;;;;;;;;;;;;;;;;;6049528;23;19927;-79
2023/05/31 11:56:47;;;;;;;;;;;;;;;;;;6073348;23;20265;-79
2023/05/31 11:59:20;;;;;;;;;;;;;;;;;;6099510;23;19929;-78
2023/05/31 12:01:52;;;;;;;;;;;;;;;;;;6083006;23;19921;-78
2023/05/31 12:04:46;;;;;;;;;;;;;;;;;;6072972;23;19928;-79
2023/05/31 12:07:35;;;;;;;;;;;;;;;;;;6110521;23;20346;-79
2023/05/31 12:10:08;;;;;;;;;;;;;;;;;;6076762;23;19964;-78
2023/05/31 12:12:56;;;;;;;;;;;;;;;;;;6075620;23;20257;-79
2023/05/31 12:15:23;;;;;;;;;;;;;;;;;;6099185;23;19921;-77
2023/05/31 12:17:50;;;;;;;;;;;;;;;;;;6106621;23;20250;-78
2023/05/31 12:20:21;;;;;;;;;;;;;;;;;;6071785;23;19925;-78
2023/05/31 12:23:04;;;;;;;;;;;;;;;;;;6051071;23;20068;-79
2023/05/31 12:25:32;;;;;;;;;;;;;;;;;;6075517;23;19922;-79
2023/05/31 12:27:59;;;;;;;;;;;;;;;;;;6079767;23;19925;-79
2023/05/31 12:30:26;;;;;;;;;;;;;;;;;;6080627;23;19928;-79
2023/05/31 12:32:53;;;;;;;;;;;;;;;;;;6057034;23;20254;-79
2023/05/31 12:35:20;;;;;;;;;;;;;;;;;;6079021;23;20132;-79
2023/05/31 12:37:47;;;;;;;;;;;;;;;;;;6037945;23;19928;-79
2023/05/31 12:40:15;;;;;;;;;;;;;;;;;;6096260;23;19921;-79
2023/05/31 12:42:44;;;;;;;;;;;;;;;;;;6050251;23;19925;-79
2023/05/31 12:45:18;;;;;;;;;;;;;;;;;;6075116;23;19928;-79
2023/05/31 12:47:53;;;;;;;;;;;;;;;;;;6074939;23;19922;-79
2023/05/31 12:50:25;;;;;;;;;;;;;;;;;;6074019;23;20254;-79
2023/05/31 12:53:01;;;;;;;;;;;;;;;;;;6087728;23;19921;-79
2023/05/31 12:55:36;;;;;;;;;;;;;;;;;;6052492;23;19928;-79
2023/05/31 12:58:10;;;;;;;;;;;;;;;;;;6101408;23;19922;-79
2023/05/31 13:00:43;;;;;;;;;;;;;;;;;;6077307;23;19921;-79
2023/05/31 13:03:14;;;;;;;;;;;;;;;;;;6077206;23;19921;-79
2023/05/31 13:05:41;;;;;;;;;;;;;;;;;;6075709;23;20257;-79
2023/05/31 13:08:08;;;;;;;;;;;;;;;;;;6075116;23;19921;-79
2023/05/31 13:10:38;;;;;;;;;;;;;;;;;;6077136;23;20350;-79
2023/05/31 13:13:08;;;;;;;;;;;;;;;;;;6057604;23;19921;-79
2023/05/31 13:15:37;;;;;;;;;;;;;;;;;;6100914;23;19921;-79
2023/05/31 13:18:04;;;;;;;;;;;;;;;;;;6051892;23;19921;-78
2023/05/31 13:20:36;;;;;;;;;;;;;;;;;;6052173;23;19921;-78
2023/05/31 13:23:03;;;;;;;;;;;;;;;;;;6073333;23;20258;-78
2023/05/31 13:25:34;;;;;;;;;;;;;;;;;;6083282;23;19922;-79
2023/05/31 13:28:01;;;;;;;;;;;;;;;;;;6073720;23;19945;-78
2023/05/31 13:30:31;;;;;;;;;;;;;;;;;;6047769;23;19921;-78
2023/05/31 13:33:05;;;;;;;;;;;;;;;;;;6049429;23;19944;-79
2023/05/31 13:35:35;;;;;;;;;;;;;;;;;;6073742;23;19925;-79
2023/05/31 13:38:02;;;;;;;;;;;;;;;;;;6050579;23;20337;-79
2023/05/31 13:40:36;;;;;;;;;;;;;;;;;;6099337;23;20242;-79
2023/05/31 13:43:04;;;;;;;;;;;;;;;;;;6072850;23;19921;-79
2023/05/31 13:45:31;;;;;;;;;;;;;;;;;;6097457;23;19925;-79
2023/05/31 13:48:01;;;;;;;;;;;;;;;;;;6075956;23;19921;-79
2023/05/31 13:50:31;;;;;;;;;;;;;;;;;;6073119;23;20269;-79
2023/05/31 13:52:59;;;;;;;;;;;;;;;;;;6073845;23;19928;-79
2023/05/31 13:55:29;;;;;;;;;;;;;;;;;;6074950;23;20262;-79
2023/05/31 13:58:00;;;;;;;;;;;;;;;;;;6099812;23;20339;-79
2023/05/31 14:00:30;;;;;;;;;;;;;;;;;;6073431;23;19925;-79
2023/05/31 14:02:58;;;;;;;;;;;;;;;;;;6072471;23;19926;-79
2023/05/31 14:05:27;;;;;;;;;;;;;;;;;;6072910;23;19921;-79
2023/05/31 14:07:59;;;;;;;;;;;;;;;;;;6100456;23;19922;-79
2023/05/31 14:10:26;;;;;;;;;;;;;;;;;;6096674;23;19932;-79
2023/05/31 14:12:55;;;;;;;;;;;;;;;;;;6075016;23;20338;-79
2023/05/31 14:15:24;;;;;;;;;;;;;;;;;;6074412;23;20354;-79
2023/05/31 14:17:51;;;;;;;;;;;;;;;;;;6048132;23;19922;-78
2023/05/31 14:20:21;;;;;;;;;;;;;;;;;;6098338;23;19922;-78
2023/05/31 14:22:50;;;;;;;;;;;;;;;;;;6073316;23;19921;-78
2023/05/31 14:25:19;;;;;;;;;;;;;;;;;;6049329;23;19928;-78
2023/05/31 14:27:51;;;;;;;;;;;;;;;;;;6076034;23;20346;-79
2023/05/31 14:30:18;;;;;;;;;;;;;;;;;;6103424;23;20262;-78
2023/05/31 14:32:45;;;;;;;;;;;;;;;;;;6050889;23;19921;-79
2023/05/31 14:35:15;;;;;;;;;;;;;;;;;;6052915;23;19921;-79
2023/05/31 14:37:44;;;;;;;;;;;;;;;;;;6051173;23;19925;-79
2023/05/31 14:40:13;;;;;;;;;;;;;;;;;;6074740;23;19928;-79
2023/05/31 14:42:43;;;;;;;;;;;;;;;;;;6073128;23;19948;-79
2023/05/31 14:45:11;;;;;;;;;;;;;;;;;;6075913;23;19931;-79
2023/05/31 14:47:38;;;;;;;;;;;;;;;;;;6074982;23;19921;-79
2023/05/31 14:50:05;;;;;;;;;;;;;;;;;;6074400;23;19921;-79
2023/05/31 14:52:34;;;;;;;;;;;;;;;;;;6100217;23;19922;-79
2023/05/31 14:55:02;;;;;;;;;;;;;;;;;;6089552;23;19925;-79
2023/05/31 14:57:32;;;;;;;;;;;;;;;;;;6057567;23;19921;-79
2023/05/31 15:00:04;;;;;;;;;;;;;;;;;;6080178;23;19925;-80
2023/05/31 15:02:31;;;;;;;;;;;;;;;;;;6091266;23;19928;-79
2023/05/31 15:05:00;;;;;;;;;;;;;;;;;;6044902;23;20818;-78
2023/05/31 15:07:27;;;;;;;;;;;;;;;;;;6070798;23;19921;-78
2023/05/31 15:09:56;;;;;;;;;;;;;;;;;;6046315;23;20335;-78
2023/05/31 15:12:26;;;;;;;;;;;;;;;;;;6046584;23;19921;-78
2023/05/31 15:14:53;;;;;;;;;;;;;;;;;;6046625;23;19944;-78
2023/05/31 15:17:24;;;;;;;;;;;;;;;;;;6097070;23;19921;-79
2023/05/31 15:20:25;;;;;;;;;;;;;;;;;;6075464;23;20345;-79
2023/05/31 15:23:11;;;;;;;;;;;;;;;;;;6074120;23;19921;-79
2023/05/31 15:25:38;;;;;;;;;;;;;;;;;;6052004;23;19928;-79
2023/05/31 15:28:08;;;;;;;;;;;;;;;;;;6086623;23;19922;-78
2023/05/31 15:30:38;;;;;;;;;;;;;;;;;;6080248;23;19921;-78
2023/05/31 15:33:09;;;;;;;;;;;;;;;;;;6079112;23;19921;-78
2023/05/31 15:35:38;;;;;;;;;;;;;;;;;;6081161;23;19927;-78
2023/05/31 15:38:08;;;;;;;;;;;;;;;;;;6086702;23;19944;-78
2023/05/31 15:40:35;;;;;;;;;;;;;;;;;;6051581;23;19921;-78
2023/05/31 15:43:02;;;;;;;;;;;;;;;;;;6074226;23;19921;-78
2023/05/31 15:45:29;;;;;;;;;;;;;;;;;;6050999;23;19921;-78
2023/05/31 15:47:59;;;;;;;;;;;;;;;;;;6074289;23;19921;-78
2023/05/31 15:50:32;;;;;;;;;;;;;;;;;;6101842;23;20262;-79
2023/05/31 15:53:01;;;;;;;;;;;;;;;;;;6083456;23;20254;-79
2023/05/31 15:55:29;;;;;;;;;;;;;;;;;;6049912;23;19928;-79
2023/05/31 15:57:56;;;;;;;;;;;;;;;;;;6073390;23;19950;-79
2023/05/31 16:00:23;;;;;;;;;;;;;;;;;;6049535;23;19921;-79
2023/05/31 16:02:50;;;;;;;;;;;;;;;;;;6072900;23;19933;-79
2023/05/31 16:05:22;;;;;;;;;;;;;;;;;;6048703;23;20401;-79
2023/05/31 16:07:59;;;;;;;;;;;;;;;;;;6072311;23;19925;-79
2023/05/31 16:10:36;;;;;;;;;;;;;;;;;;6074226;23;19922;-79
2023/05/31 16:13:07;;;;;;;;;;;;;;;;;;6097458;23;19929;-79
2023/05/31 16:15:36;;;;;;;;;;;;;;;;;;6107515;23;19921;-79
2023/05/31 16:18:06;;;;;;;;;;;;;;;;;;6072188;23;19929;-79
2023/05/31 16:20:35;;;;;;;;;;;;;;;;;;6073103;23;19928;-79
2023/05/31 16:23:04;;;;;;;;;;;;;;;;;;6071707;23;19928;-79
2023/05/31 16:25:32;;;;;;;;;;;;;;;;;;6072356;23;19926;-79
2023/05/31 16:28:01;;;;;;;;;;;;;;;;;;6046918;23;20267;-78
2023/05/31 16:30:30;;;;;;;;;;;;;;;;;;6068618;23;20337;-78
2023/05/31 16:32:59;;;;;;;;;;;;;;;;;;6095934;23;19948;-79
2023/05/31 16:35:26;;;;;;;;;;;;;;;;;;6070929;23;19921;-79
2023/05/31 16:37:58;;;;;;;;;;;;;;;;;;6105461;23;19960;-79
2023/05/31 16:40:27;;;;;;;;;;;;;;;;;;6046985;23;19922;-79
2023/05/31 16:42:57;;;;;;;;;;;;;;;;;;6070023;23;19951;-79
2023/05/31 16:45:26;;;;;;;;;;;;;;;;;;6071137;23;19922;-79
2023/05/31 16:47:53;;;;;;;;;;;;;;;;;;6070832;23;19921;-79
2023/05/31 16:50:20;;;;;;;;;;;;;;;;;;6071322;23;19925;-79
2023/05/31 16:52:51;;;;;;;;;;;;;;;;;;6033961;23;19922;-78
2023/05/31 16:55:18;;;;;;;;;;;;;;;;;;6070101;23;19921;-78
2023/05/31 16:57:50;;;;;;;;;;;;;;;;;;6094268;23;19929;-78
2023/05/31 17:00:17;;;;;;;;;;;;;;;;;;6046609;23;19921;-78
2023/05/31 17:02:49;;;;;;;;;;;;;;;;;;6070786;23;20208;-78
2023/05/31 17:05:18;;;;;;;;;;;;;;;;;;6047271;23;19928;-78
2023/05/31 17:07:45;;;;;;;;;;;;;;;;;;6070348;23;19925;-78